sensor_id;sensor_type;location;lat;lon;timestamp;P1;durP1;ratioP1;P2;durP2;ratioP2
21567;SDS011;10944;42.590;12.630;2022-10-31T00:01:15;11.30;;;4.85;;
21567;SDS011;10944;42.590;12.630;2022-10-31T00:03:47;9.27;;;4.88;;
21567;SDS011;10944;42.590;12.630;2022-10-31T00:06:13;10.73;;;5.30;;
21567;SDS011;10944;42.590;12.630;2022-10-31T00:08:39;11.00;;;5.05;;
21567;SDS011;10944;42.590;12.630;2022-10-31T00:11:09;9.13;;;5.03;;
21567;SDS011;10944;42.590;12.630;2022-10-31T00:13:35;8.23;;;4.80;;
21567;SDS011;10944;42.590;12.630;2022-10-31T00:16:01;14.10;;;5.53;;
21567;SDS011;10944;42.590;12.630;2022-10-31T00:18:26;8.73;;;4.80;;
21567;SDS011;10944;42.590;12.630;2022-10-31T00:21:01;12.50;;;4.97;;
21567;SDS011;10944;42.590;12.630;2022-10-31T00:23:28;10.00;;;5.07;;
21567;SDS011;10944;42.590;12.630;2022-10-31T00:25:54;8.45;;;3.97;;
21567;SDS011;10944;42.590;12.630;2022-10-31T00:28:24;7.13;;;3.63;;
21567;SDS011;10944;42.590;12.630;2022-10-31T00:30:50;8.68;;;3.83;;
21567;SDS011;10944;42.590;12.630;2022-10-31T00:33:16;7.22;;;4.03;;
21567;SDS011;10944;42.590;12.630;2022-10-31T00:35:41;8.95;;;4.22;;
21567;SDS011;10944;42.590;12.630;2022-10-31T00:38:07;6.63;;;3.92;;
21567;SDS011;10944;42.590;12.630;2022-10-31T00:40:33;7.28;;;3.53;;
21567;SDS011;10944;42.590;12.630;2022-10-31T00:42:58;9.18;;;3.50;;
21567;SDS011;10944;42.590;12.630;2022-10-31T00:45:24;7.80;;;3.63;;
21567;SDS011;10944;42.590;12.630;2022-10-31T00:47:50;8.63;;;4.18;;
21567;SDS011;10944;42.590;12.630;2022-10-31T00:50:15;5.95;;;3.03;;
21567;SDS011;10944;42.590;12.630;2022-10-31T00:52:41;8.43;;;3.40;;
21567;SDS011;10944;42.590;12.630;2022-10-31T00:55:07;7.93;;;3.40;;
21567;SDS011;10944;42.590;12.630;2022-10-31T00:57:33;4.63;;;2.90;;
21567;SDS011;10944;42.590;12.630;2022-10-31T00:59:58;7.95;;;3.10;;
21567;SDS011;10944;42.590;12.630;2022-10-31T01:02:24;7.72;;;3.10;;
21567;SDS011;10944;42.590;12.630;2022-10-31T01:04:50;6.53;;;2.92;;
21567;SDS011;10944;42.590;12.630;2022-10-31T01:07:15;6.47;;;2.75;;
21567;SDS011;10944;42.590;12.630;2022-10-31T01:09:41;7.68;;;2.80;;
21567;SDS011;10944;42.590;12.630;2022-10-31T01:12:07;9.10;;;3.00;;
21567;SDS011;10944;42.590;12.630;2022-10-31T01:14:33;5.82;;;2.85;;
21567;SDS011;10944;42.590;12.630;2022-10-31T01:16:58;5.13;;;3.20;;
21567;SDS011;10944;42.590;12.630;2022-10-31T01:19:24;12.25;;;3.40;;
21567;SDS011;10944;42.590;12.630;2022-10-31T01:21:50;7.72;;;3.50;;
21567;SDS011;10944;42.590;12.630;2022-10-31T01:24:18;9.48;;;4.00;;
21567;SDS011;10944;42.590;12.630;2022-10-31T01:26:44;9.20;;;4.00;;
21567;SDS011;10944;42.590;12.630;2022-10-31T01:29:10;10.20;;;4.70;;
21567;SDS011;10944;42.590;12.630;2022-10-31T01:31:36;9.27;;;4.60;;
21567;SDS011;10944;42.590;12.630;2022-10-31T01:34:04;8.82;;;4.50;;
21567;SDS011;10944;42.590;12.630;2022-10-31T01:36:31;10.88;;;4.60;;
21567;SDS011;10944;42.590;12.630;2022-10-31T01:39:04;11.57;;;5.05;;
21567;SDS011;10944;42.590;12.630;2022-10-31T01:41:36;9.88;;;4.63;;
21567;SDS011;10944;42.590;12.630;2022-10-31T01:46:40;10.68;;;4.95;;
21567;SDS011;10944;42.590;12.630;2022-10-31T01:49:23;11.45;;;5.13;;
21567;SDS011;10944;42.590;12.630;2022-10-31T01:51:51;12.40;;;5.25;;
21567;SDS011;10944;42.590;12.630;2022-10-31T01:54:22;10.60;;;5.10;;
21567;SDS011;10944;42.590;12.630;2022-10-31T01:56:52;11.90;;;5.05;;
21567;SDS011;10944;42.590;12.630;2022-10-31T01:59:21;11.35;;;5.13;;
21567;SDS011;10944;42.590;12.630;2022-10-31T02:01:49;11.40;;;5.70;;
21567;SDS011;10944;42.590;12.630;2022-10-31T02:04:16;12.02;;;5.63;;
21567;SDS011;10944;42.590;12.630;2022-10-31T02:06:51;8.93;;;5.47;;
21567;SDS011;10944;42.590;12.630;2022-10-31T02:09:23;11.00;;;5.68;;
21567;SDS011;10944;42.590;12.630;2022-10-31T02:11:51;8.85;;;5.40;;
21567;SDS011;10944;42.590;12.630;2022-10-31T02:14:20;11.13;;;5.80;;
21567;SDS011;10944;42.590;12.630;2022-10-31T02:16:48;11.50;;;5.72;;
21567;SDS011;10944;42.590;12.630;2022-10-31T02:19:16;10.07;;;5.63;;
21567;SDS011;10944;42.590;12.630;2022-10-31T02:21:53;11.38;;;5.40;;
21567;SDS011;10944;42.590;12.630;2022-10-31T02:30:04;12.90;;;5.30;;
21567;SDS011;10944;42.590;12.630;2022-10-31T02:38:04;10.55;;;5.80;;
21567;SDS011;10944;42.590;12.630;2022-10-31T02:40:51;9.50;;;5.40;;
21567;SDS011;10944;42.590;12.630;2022-10-31T02:48:54;10.13;;;5.60;;
21567;SDS011;10944;42.590;12.630;2022-10-31T02:51:25;12.30;;;5.22;;
21567;SDS011;10944;42.590;12.630;2022-10-31T02:53:51;15.60;;;5.50;;
21567;SDS011;10944;42.590;12.630;2022-10-31T02:56:17;8.20;;;4.78;;
21567;SDS011;10944;42.590;12.630;2022-10-31T02:59:05;13.45;;;5.82;;
21567;SDS011;10944;42.590;12.630;2022-10-31T03:07:01;9.75;;;5.43;;
21567;SDS011;10944;42.590;12.630;2022-10-31T03:09:44;11.27;;;6.15;;
21567;SDS011;10944;42.590;12.630;2022-10-31T03:15:30;11.88;;;5.65;;
21567;SDS011;10944;42.590;12.630;2022-10-31T03:18:09;11.48;;;5.35;;
21567;SDS011;10944;42.590;12.630;2022-10-31T03:20:38;10.98;;;5.10;;
21567;SDS011;10944;42.590;12.630;2022-10-31T03:23:07;10.45;;;5.07;;
21567;SDS011;10944;42.590;12.630;2022-10-31T03:25:37;10.18;;;4.63;;
21567;SDS011;10944;42.590;12.630;2022-10-31T03:28:04;8.55;;;4.82;;
21567;SDS011;10944;42.590;12.630;2022-10-31T03:30:32;10.07;;;4.75;;
21567;SDS011;10944;42.590;12.630;2022-10-31T03:33:01;13.98;;;5.82;;
21567;SDS011;10944;42.590;12.630;2022-10-31T03:35:29;8.32;;;4.40;;
21567;SDS011;10944;42.590;12.630;2022-10-31T03:37:57;11.35;;;4.75;;
21567;SDS011;10944;42.590;12.630;2022-10-31T03:40:25;10.85;;;5.00;;
21567;SDS011;10944;42.590;12.630;2022-10-31T03:43:00;10.48;;;4.97;;
21567;SDS011;10944;42.590;12.630;2022-10-31T03:45:32;9.98;;;5.07;;
21567;SDS011;10944;42.590;12.630;2022-10-31T03:48:05;9.63;;;5.22;;
21567;SDS011;10944;42.590;12.630;2022-10-31T03:50:36;8.10;;;4.70;;
21567;SDS011;10944;42.590;12.630;2022-10-31T03:53:10;9.60;;;4.93;;
21567;SDS011;10944;42.590;12.630;2022-10-31T04:00:48;12.55;;;5.20;;
21567;SDS011;10944;42.590;12.630;2022-10-31T04:03:19;11.75;;;5.45;;
21567;SDS011;10944;42.590;12.630;2022-10-31T04:05:49;10.32;;;5.18;;
21567;SDS011;10944;42.590;12.630;2022-10-31T04:08:17;10.35;;;5.00;;
21567;SDS011;10944;42.590;12.630;2022-10-31T04:10:47;13.43;;;5.00;;
21567;SDS011;10944;42.590;12.630;2022-10-31T04:13:16;10.80;;;5.38;;
21567;SDS011;10944;42.590;12.630;2022-10-31T04:15:45;8.48;;;4.88;;
21567;SDS011;10944;42.590;12.630;2022-10-31T04:18:13;13.38;;;5.25;;
21567;SDS011;10944;42.590;12.630;2022-10-31T04:20:39;12.45;;;5.32;;
21567;SDS011;10944;42.590;12.630;2022-10-31T04:23:14;10.52;;;5.65;;
21567;SDS011;10944;42.590;12.630;2022-10-31T04:25:44;9.35;;;5.03;;
21567;SDS011;10944;42.590;12.630;2022-10-31T04:28:10;13.25;;;5.63;;
21567;SDS011;10944;42.590;12.630;2022-10-31T04:30:36;12.95;;;5.60;;
21567;SDS011;10944;42.590;12.630;2022-10-31T04:33:01;9.30;;;4.85;;
21567;SDS011;10944;42.590;12.630;2022-10-31T04:35:27;13.30;;;5.50;;
21567;SDS011;10944;42.590;12.630;2022-10-31T04:37:53;12.43;;;5.38;;
21567;SDS011;10944;42.590;12.630;2022-10-31T04:40:18;15.70;;;6.18;;
21567;SDS011;10944;42.590;12.630;2022-10-31T04:42:44;9.95;;;5.32;;
21567;SDS011;10944;42.590;12.630;2022-10-31T04:45:10;10.43;;;5.53;;
21567;SDS011;10944;42.590;12.630;2022-10-31T04:47:35;12.35;;;5.60;;
21567;SDS011;10944;42.590;12.630;2022-10-31T04:50:01;14.05;;;5.78;;
21567;SDS011;10944;42.590;12.630;2022-10-31T04:52:27;11.98;;;5.50;;
21567;SDS011;10944;42.590;12.630;2022-10-31T04:54:53;10.63;;;5.50;;
21567;SDS011;10944;42.590;12.630;2022-10-31T04:57:19;11.82;;;5.10;;
21567;SDS011;10944;42.590;12.630;2022-10-31T04:59:45;9.73;;;4.82;;
21567;SDS011;10944;42.590;12.630;2022-10-31T05:02:10;11.13;;;4.78;;
21567;SDS011;10944;42.590;12.630;2022-10-31T05:04:36;9.40;;;5.00;;
21567;SDS011;10944;42.590;12.630;2022-10-31T05:07:02;9.98;;;4.80;;
21567;SDS011;10944;42.590;12.630;2022-10-31T05:09:27;9.02;;;4.95;;
21567;SDS011;10944;42.590;12.630;2022-10-31T05:11:53;11.00;;;5.15;;
21567;SDS011;10944;42.590;12.630;2022-10-31T05:14:19;9.25;;;4.45;;
21567;SDS011;10944;42.590;12.630;2022-10-31T05:16:44;8.73;;;4.57;;
21567;SDS011;10944;42.590;12.630;2022-10-31T05:19:10;10.43;;;4.60;;
21567;SDS011;10944;42.590;12.630;2022-10-31T05:21:36;11.43;;;4.88;;
21567;SDS011;10944;42.590;12.630;2022-10-31T05:24:01;11.63;;;4.80;;
21567;SDS011;10944;42.590;12.630;2022-10-31T05:26:27;9.18;;;4.55;;
21567;SDS011;10944;42.590;12.630;2022-10-31T05:28:53;10.02;;;4.63;;
21567;SDS011;10944;42.590;12.630;2022-10-31T05:31:19;9.88;;;4.55;;
21567;SDS011;10944;42.590;12.630;2022-10-31T05:33:45;10.70;;;4.53;;
21567;SDS011;10944;42.590;12.630;2022-10-31T05:36:10;9.30;;;4.30;;
21567;SDS011;10944;42.590;12.630;2022-10-31T05:38:36;7.03;;;3.75;;
21567;SDS011;10944;42.590;12.630;2022-10-31T05:41:02;9.88;;;4.43;;
21567;SDS011;10944;42.590;12.630;2022-10-31T05:43:28;8.77;;;4.15;;
21567;SDS011;10944;42.590;12.630;2022-10-31T05:45:54;11.23;;;4.10;;
21567;SDS011;10944;42.590;12.630;2022-10-31T05:48:21;7.95;;;3.72;;
21567;SDS011;10944;42.590;12.630;2022-10-31T05:50:47;9.18;;;4.20;;
21567;SDS011;10944;42.590;12.630;2022-10-31T05:53:13;9.73;;;4.65;;
21567;SDS011;10944;42.590;12.630;2022-10-31T05:55:40;11.27;;;4.00;;
21567;SDS011;10944;42.590;12.630;2022-10-31T05:58:06;7.60;;;3.90;;
21567;SDS011;10944;42.590;12.630;2022-10-31T06:00:32;10.90;;;3.80;;
21567;SDS011;10944;42.590;12.630;2022-10-31T06:03:03;9.45;;;4.18;;
21567;SDS011;10944;42.590;12.630;2022-10-31T06:05:30;10.52;;;3.75;;
21567;SDS011;10944;42.590;12.630;2022-10-31T06:07:56;9.10;;;4.15;;
21567;SDS011;10944;42.590;12.630;2022-10-31T06:10:22;9.35;;;4.95;;
21567;SDS011;10944;42.590;12.630;2022-10-31T06:12:48;10.93;;;4.90;;
21567;SDS011;10944;42.590;12.630;2022-10-31T06:15:15;8.52;;;4.60;;
21567;SDS011;10944;42.590;12.630;2022-10-31T06:17:41;9.38;;;4.50;;
21567;SDS011;10944;42.590;12.630;2022-10-31T06:20:07;11.18;;;5.20;;
21567;SDS011;10944;42.590;12.630;2022-10-31T06:22:33;9.15;;;4.80;;
21567;SDS011;10944;42.590;12.630;2022-10-31T06:24:59;10.75;;;4.88;;
21567;SDS011;10944;42.590;12.630;2022-10-31T06:27:25;11.55;;;5.18;;
21567;SDS011;10944;42.590;12.630;2022-10-31T06:29:51;10.15;;;5.00;;
21567;SDS011;10944;42.590;12.630;2022-10-31T06:32:17;12.10;;;5.20;;
21567;SDS011;10944;42.590;12.630;2022-10-31T06:34:43;11.93;;;6.22;;
21567;SDS011;10944;42.590;12.630;2022-10-31T06:37:10;17.08;;;7.43;;
21567;SDS011;10944;42.590;12.630;2022-10-31T06:39:37;17.95;;;8.65;;
21567;SDS011;10944;42.590;12.630;2022-10-31T06:42:03;21.42;;;9.75;;
21567;SDS011;10944;42.590;12.630;2022-10-31T06:44:30;21.75;;;9.43;;
21567;SDS011;10944;42.590;12.630;2022-10-31T06:46:56;19.85;;;9.52;;
21567;SDS011;10944;42.590;12.630;2022-10-31T06:49:21;20.00;;;9.50;;
21567;SDS011;10944;42.590;12.630;2022-10-31T06:51:47;20.52;;;9.25;;
21567;SDS011;10944;42.590;12.630;2022-10-31T06:54:14;19.67;;;8.73;;
21567;SDS011;10944;42.590;12.630;2022-10-31T06:56:40;20.48;;;8.90;;
21567;SDS011;10944;42.590;12.630;2022-10-31T06:59:06;15.40;;;7.55;;
21567;SDS011;10944;42.590;12.630;2022-10-31T07:01:32;18.10;;;7.47;;
21567;SDS011;10944;42.590;12.630;2022-10-31T07:03:58;13.95;;;6.13;;
21567;SDS011;10944;42.590;12.630;2022-10-31T07:06:24;17.30;;;6.53;;
21567;SDS011;10944;42.590;12.630;2022-10-31T07:08:49;11.35;;;6.50;;
21567;SDS011;10944;42.590;12.630;2022-10-31T07:11:15;12.68;;;5.65;;
21567;SDS011;10944;42.590;12.630;2022-10-31T07:13:41;13.88;;;6.57;;
21567;SDS011;10944;42.590;12.630;2022-10-31T07:16:06;13.40;;;6.43;;
21567;SDS011;10944;42.590;12.630;2022-10-31T07:18:33;13.82;;;6.47;;
21567;SDS011;10944;42.590;12.630;2022-10-31T07:20:59;15.02;;;5.93;;
21567;SDS011;10944;42.590;12.630;2022-10-31T07:23:27;12.35;;;5.50;;
21567;SDS011;10944;42.590;12.630;2022-10-31T07:25:57;11.02;;;5.43;;
21567;SDS011;10944;42.590;12.630;2022-10-31T07:28:24;14.05;;;6.13;;
21567;SDS011;10944;42.590;12.630;2022-10-31T07:30:54;14.65;;;5.65;;
21567;SDS011;10944;42.590;12.630;2022-10-31T07:33:21;13.52;;;5.82;;
21567;SDS011;10944;42.590;12.630;2022-10-31T07:35:47;12.68;;;6.80;;
21567;SDS011;10944;42.590;12.630;2022-10-31T07:38:14;16.48;;;6.60;;
21567;SDS011;10944;42.590;12.630;2022-10-31T07:40:40;14.63;;;7.70;;
21567;SDS011;10944;42.590;12.630;2022-10-31T07:43:07;14.45;;;7.75;;
21567;SDS011;10944;42.590;12.630;2022-10-31T07:45:33;18.17;;;8.80;;
21567;SDS011;10944;42.590;12.630;2022-10-31T07:47:59;12.98;;;7.68;;
21567;SDS011;10944;42.590;12.630;2022-10-31T07:50:26;22.83;;;11.05;;
21567;SDS011;10944;42.590;12.630;2022-10-31T07:53:05;19.40;;;11.20;;
21567;SDS011;10944;42.590;12.630;2022-10-31T07:55:33;22.50;;;11.98;;
21567;SDS011;10944;42.590;12.630;2022-10-31T07:58:00;32.55;;;21.20;;
21567;SDS011;10944;42.590;12.630;2022-10-31T08:00:27;37.20;;;20.27;;
21567;SDS011;10944;42.590;12.630;2022-10-31T08:02:59;23.58;;;13.90;;
21567;SDS011;10944;42.590;12.630;2022-10-31T08:05:29;21.65;;;10.88;;
21567;SDS011;10944;42.590;12.630;2022-10-31T08:07:55;18.25;;;10.25;;
21567;SDS011;10944;42.590;12.630;2022-10-31T08:10:22;16.73;;;10.07;;
21567;SDS011;10944;42.590;12.630;2022-10-31T08:12:58;18.17;;;9.00;;
21567;SDS011;10944;42.590;12.630;2022-10-31T08:15:42;17.40;;;8.90;;
21567;SDS011;10944;42.590;12.630;2022-10-31T08:18:10;16.63;;;8.35;;
21567;SDS011;10944;42.590;12.630;2022-10-31T08:20:38;15.05;;;8.02;;
21567;SDS011;10944;42.590;12.630;2022-10-31T08:23:04;15.10;;;8.32;;
21567;SDS011;10944;42.590;12.630;2022-10-31T08:25:31;14.05;;;7.85;;
21567;SDS011;10944;42.590;12.630;2022-10-31T08:27:59;14.82;;;8.50;;
21567;SDS011;10944;42.590;12.630;2022-10-31T08:30:26;20.02;;;9.18;;
21567;SDS011;10944;42.590;12.630;2022-10-31T08:33:04;19.90;;;8.80;;
21567;SDS011;10944;42.590;12.630;2022-10-31T08:35:33;14.07;;;8.40;;
21567;SDS011;10944;42.590;12.630;2022-10-31T08:37:59;13.63;;;8.35;;
21567;SDS011;10944;42.590;12.630;2022-10-31T08:40:25;14.77;;;8.20;;
21567;SDS011;10944;42.590;12.630;2022-10-31T08:42:55;13.77;;;7.20;;
21567;SDS011;10944;42.590;12.630;2022-10-31T08:45:31;13.48;;;7.93;;
21567;SDS011;10944;42.590;12.630;2022-10-31T08:47:59;15.35;;;7.32;;
21567;SDS011;10944;42.590;12.630;2022-10-31T08:50:26;13.07;;;6.95;;
21567;SDS011;10944;42.590;12.630;2022-10-31T08:52:52;17.40;;;7.45;;
21567;SDS011;10944;42.590;12.630;2022-10-31T08:55:18;12.93;;;7.03;;
21567;SDS011;10944;42.590;12.630;2022-10-31T08:57:44;10.93;;;6.38;;
21567;SDS011;10944;42.590;12.630;2022-10-31T09:00:10;12.35;;;6.43;;
21567;SDS011;10944;42.590;12.630;2022-10-31T09:02:36;14.27;;;6.72;;
21567;SDS011;10944;42.590;12.630;2022-10-31T09:05:03;12.48;;;6.90;;
21567;SDS011;10944;42.590;12.630;2022-10-31T09:07:29;10.80;;;6.10;;
21567;SDS011;10944;42.590;12.630;2022-10-31T09:09:55;13.15;;;6.63;;
21567;SDS011;10944;42.590;12.630;2022-10-31T09:12:21;10.85;;;5.88;;
21567;SDS011;10944;42.590;12.630;2022-10-31T09:14:48;13.18;;;6.78;;
21567;SDS011;10944;42.590;12.630;2022-10-31T09:17:14;11.52;;;6.40;;
21567;SDS011;10944;42.590;12.630;2022-10-31T09:19:40;12.60;;;6.47;;
21567;SDS011;10944;42.590;12.630;2022-10-31T09:22:05;16.42;;;6.47;;
21567;SDS011;10944;42.590;12.630;2022-10-31T09:24:31;11.27;;;5.93;;
21567;SDS011;10944;42.590;12.630;2022-10-31T09:26:58;15.73;;;6.93;;
21567;SDS011;10944;42.590;12.630;2022-10-31T09:29:23;17.55;;;8.32;;
21567;SDS011;10944;42.590;12.630;2022-10-31T09:31:49;15.60;;;7.97;;
21567;SDS011;10944;42.590;12.630;2022-10-31T09:34:15;15.35;;;8.25;;
21567;SDS011;10944;42.590;12.630;2022-10-31T09:36:40;18.33;;;10.18;;
21567;SDS011;10944;42.590;12.630;2022-10-31T09:39:08;23.52;;;9.77;;
21567;SDS011;10944;42.590;12.630;2022-10-31T09:47:46;19.33;;;11.52;;
21567;SDS011;10944;42.590;12.630;2022-10-31T09:53:25;17.67;;;8.20;;
21567;SDS011;10944;42.590;12.630;2022-10-31T09:55:52;15.63;;;7.15;;
21567;SDS011;10944;42.590;12.630;2022-10-31T09:58:25;14.85;;;8.82;;
21567;SDS011;10944;42.590;12.630;2022-10-31T10:00:57;24.77;;;13.63;;
21567;SDS011;10944;42.590;12.630;2022-10-31T10:06:13;13.43;;;6.70;;
21567;SDS011;10944;42.590;12.630;2022-10-31T10:08:43;15.68;;;6.60;;
21567;SDS011;10944;42.590;12.630;2022-10-31T10:14:14;16.23;;;7.65;;
21567;SDS011;10944;42.590;12.630;2022-10-31T10:16:54;12.63;;;6.53;;
21567;SDS011;10944;42.590;12.630;2022-10-31T10:24:52;17.30;;;7.30;;
21567;SDS011;10944;42.590;12.630;2022-10-31T10:29:56;15.43;;;6.20;;
21567;SDS011;10944;42.590;12.630;2022-10-31T10:32:27;13.75;;;6.30;;
21567;SDS011;10944;42.590;12.630;2022-10-31T10:35:07;17.70;;;8.77;;
21567;SDS011;10944;42.590;12.630;2022-10-31T10:37:43;16.80;;;7.28;;
21567;SDS011;10944;42.590;12.630;2022-10-31T10:40:13;18.17;;;8.52;;
21567;SDS011;10944;42.590;12.630;2022-10-31T10:43:43;30.92;;;13.32;;
21567;SDS011;10944;42.590;12.630;2022-10-31T10:49:03;17.08;;;7.93;;
21567;SDS011;10944;42.590;12.630;2022-10-31T10:57:38;15.20;;;7.28;;
21567;SDS011;10944;42.590;12.630;2022-10-31T11:00:00;15.88;;;7.00;;
21567;SDS011;10944;42.590;12.630;2022-10-31T11:02:36;16.05;;;7.00;;
21567;SDS011;10944;42.590;12.630;2022-10-31T11:05:02;15.18;;;5.75;;
21567;SDS011;10944;42.590;12.630;2022-10-31T11:07:38;13.02;;;5.80;;
21567;SDS011;10944;42.590;12.630;2022-10-31T11:10:05;11.10;;;5.35;;
21567;SDS011;10944;42.590;12.630;2022-10-31T11:12:39;13.38;;;5.30;;
21567;SDS011;10944;42.590;12.630;2022-10-31T11:15:07;16.38;;;5.82;;
21567;SDS011;10944;42.590;12.630;2022-10-31T11:17:48;12.05;;;5.03;;
21567;SDS011;10944;42.590;12.630;2022-10-31T11:22:41;13.85;;;5.32;;
21567;SDS011;10944;42.590;12.630;2022-10-31T11:25:25;9.55;;;5.00;;
21567;SDS011;10944;42.590;12.630;2022-10-31T11:28:04;10.90;;;4.88;;
21567;SDS011;10944;42.590;12.630;2022-10-31T11:30:52;13.05;;;5.10;;
21567;SDS011;10944;42.590;12.630;2022-10-31T11:33:28;16.02;;;5.93;;
21567;SDS011;10944;42.590;12.630;2022-10-31T11:35:54;13.88;;;4.82;;
21567;SDS011;10944;42.590;12.630;2022-10-31T11:38:21;16.92;;;6.47;;
21567;SDS011;10944;42.590;12.630;2022-10-31T11:40:53;13.88;;;5.53;;
21567;SDS011;10944;42.590;12.630;2022-10-31T11:43:30;14.00;;;5.40;;
21567;SDS011;10944;42.590;12.630;2022-10-31T11:45:56;10.45;;;6.20;;
21567;SDS011;10944;42.590;12.630;2022-10-31T11:48:22;10.70;;;4.95;;
21567;SDS011;10944;42.590;12.630;2022-10-31T11:50:51;12.73;;;5.85;;
21567;SDS011;10944;42.590;12.630;2022-10-31T11:53:31;14.43;;;4.97;;
21567;SDS011;10944;42.590;12.630;2022-10-31T11:58:41;9.27;;;4.63;;
21567;SDS011;10944;42.590;12.630;2022-10-31T12:01:21;10.95;;;5.45;;
21567;SDS011;10944;42.590;12.630;2022-10-31T12:04:10;11.35;;;5.35;;
21567;SDS011;10944;42.590;12.630;2022-10-31T12:06:40;12.35;;;4.90;;
21567;SDS011;10944;42.590;12.630;2022-10-31T12:20:03;9.18;;;5.25;;
21567;SDS011;10944;42.590;12.630;2022-10-31T12:28:36;11.27;;;4.95;;
21567;SDS011;10944;42.590;12.630;2022-10-31T12:31:26;14.10;;;4.57;;
21567;SDS011;10944;42.590;12.630;2022-10-31T12:39:50;12.95;;;5.57;;
21567;SDS011;10944;42.590;12.630;2022-10-31T12:42:44;13.40;;;5.47;;
21567;SDS011;10944;42.590;12.630;2022-10-31T12:48:18;9.98;;;4.40;;
21567;SDS011;10944;42.590;12.630;2022-10-31T12:51:11;8.88;;;4.13;;
21567;SDS011;10944;42.590;12.630;2022-10-31T12:54:13;10.80;;;4.50;;
21567;SDS011;10944;42.590;12.630;2022-10-31T12:59:30;13.45;;;5.43;;
21567;SDS011;10944;42.590;12.630;2022-10-31T13:05:17;15.73;;;5.50;;
21567;SDS011;10944;42.590;12.630;2022-10-31T13:10:19;10.57;;;3.97;;
21567;SDS011;10944;42.590;12.630;2022-10-31T13:12:50;6.50;;;3.50;;
21567;SDS011;10944;42.590;12.630;2022-10-31T13:15:23;13.00;;;4.00;;
21567;SDS011;10944;42.590;12.630;2022-10-31T13:17:53;9.63;;;4.00;;
21567;SDS011;10944;42.590;12.630;2022-10-31T13:20:28;10.93;;;4.57;;
21567;SDS011;10944;42.590;12.630;2022-10-31T13:23:42;9.95;;;3.60;;
21567;SDS011;10944;42.590;12.630;2022-10-31T13:25:56;8.88;;;3.75;;
21567;SDS011;10944;42.590;12.630;2022-10-31T13:28:36;9.50;;;4.00;;
21567;SDS011;10944;42.590;12.630;2022-10-31T13:31:11;11.45;;;3.70;;
21567;SDS011;10944;42.590;12.630;2022-10-31T13:33:47;11.73;;;3.45;;
21567;SDS011;10944;42.590;12.630;2022-10-31T13:42:08;11.38;;;3.63;;
21567;SDS011;10944;42.590;12.630;2022-10-31T13:44:42;8.18;;;3.35;;
21567;SDS011;10944;42.590;12.630;2022-10-31T13:50:22;8.77;;;3.10;;
21567;SDS011;10944;42.590;12.630;2022-10-31T13:52:50;8.05;;;3.95;;
21567;SDS011;10944;42.590;12.630;2022-10-31T13:55:33;9.38;;;3.35;;
21567;SDS011;10944;42.590;12.630;2022-10-31T13:58:23;7.60;;;3.15;;
21567;SDS011;10944;42.590;12.630;2022-10-31T14:01:03;7.53;;;3.33;;
21567;SDS011;10944;42.590;12.630;2022-10-31T14:03:38;9.77;;;3.50;;
21567;SDS011;10944;42.590;12.630;2022-10-31T14:06:07;8.60;;;3.33;;
21567;SDS011;10944;42.590;12.630;2022-10-31T14:08:35;7.85;;;2.90;;
21567;SDS011;10944;42.590;12.630;2022-10-31T14:11:05;6.22;;;3.10;;
21567;SDS011;10944;42.590;12.630;2022-10-31T14:13:36;10.63;;;3.40;;
21567;SDS011;10944;42.590;12.630;2022-10-31T14:16:42;6.80;;;3.05;;
21567;SDS011;10944;42.590;12.630;2022-10-31T14:19:18;8.32;;;3.75;;
21567;SDS011;10944;42.590;12.630;2022-10-31T14:21:48;8.70;;;3.47;;
21567;SDS011;10944;42.590;12.630;2022-10-31T14:26:53;12.82;;;3.70;;
21567;SDS011;10944;42.590;12.630;2022-10-31T14:29:25;7.60;;;3.40;;
21567;SDS011;10944;42.590;12.630;2022-10-31T14:34:30;8.77;;;3.33;;
21567;SDS011;10944;42.590;12.630;2022-10-31T14:39:52;11.40;;;3.60;;
21567;SDS011;10944;42.590;12.630;2022-10-31T14:53:10;8.82;;;3.60;;
21567;SDS011;10944;42.590;12.630;2022-10-31T14:55:47;9.77;;;3.88;;
21567;SDS011;10944;42.590;12.630;2022-10-31T14:58:19;7.80;;;3.65;;
21567;SDS011;10944;42.590;12.630;2022-10-31T15:00:52;7.75;;;3.67;;
21567;SDS011;10944;42.590;12.630;2022-10-31T15:03:29;7.82;;;4.18;;
21567;SDS011;10944;42.590;12.630;2022-10-31T15:06:05;8.85;;;4.18;;
21567;SDS011;10944;42.590;12.630;2022-10-31T15:08:40;9.95;;;3.80;;
21567;SDS011;10944;42.590;12.630;2022-10-31T15:13:49;7.15;;;3.85;;
21567;SDS011;10944;42.590;12.630;2022-10-31T15:18:54;10.15;;;4.10;;
21567;SDS011;10944;42.590;12.630;2022-10-31T15:21:22;9.95;;;4.18;;
21567;SDS011;10944;42.590;12.630;2022-10-31T15:23:51;7.45;;;3.83;;
21567;SDS011;10944;42.590;12.630;2022-10-31T15:26:20;10.65;;;3.80;;
21567;SDS011;10944;42.590;12.630;2022-10-31T15:29:01;13.52;;;4.47;;
21567;SDS011;10944;42.590;12.630;2022-10-31T15:31:29;9.02;;;3.88;;
21567;SDS011;10944;42.590;12.630;2022-10-31T15:33:56;8.63;;;4.07;;
21567;SDS011;10944;42.590;12.630;2022-10-31T15:36:27;12.48;;;4.10;;
21567;SDS011;10944;42.590;12.630;2022-10-31T15:38:54;9.35;;;4.00;;
21567;SDS011;10944;42.590;12.630;2022-10-31T15:44:01;10.02;;;3.58;;
21567;SDS011;10944;42.590;12.630;2022-10-31T15:46:41;6.75;;;3.28;;
21567;SDS011;10944;42.590;12.630;2022-10-31T15:49:15;9.15;;;3.45;;
21567;SDS011;10944;42.590;12.630;2022-10-31T15:51:54;8.57;;;4.20;;
21567;SDS011;10944;42.590;12.630;2022-10-31T15:54:20;9.60;;;3.80;;
21567;SDS011;10944;42.590;12.630;2022-10-31T15:56:46;8.82;;;3.70;;
21567;SDS011;10944;42.590;12.630;2022-10-31T15:59:22;10.82;;;4.00;;
21567;SDS011;10944;42.590;12.630;2022-10-31T16:01:58;13.23;;;4.90;;
21567;SDS011;10944;42.590;12.630;2022-10-31T16:04:25;10.30;;;3.75;;
21567;SDS011;10944;42.590;12.630;2022-10-31T16:06:59;8.90;;;3.58;;
21567;SDS011;10944;42.590;12.630;2022-10-31T16:09:26;5.97;;;3.45;;
21567;SDS011;10944;42.590;12.630;2022-10-31T16:11:52;14.52;;;4.13;;
21567;SDS011;10944;42.590;12.630;2022-10-31T16:14:26;8.82;;;3.80;;
21567;SDS011;10944;42.590;12.630;2022-10-31T16:16:55;9.13;;;3.17;;
21567;SDS011;10944;42.590;12.630;2022-10-31T16:19:24;11.07;;;3.22;;
21567;SDS011;10944;42.590;12.630;2022-10-31T16:21:54;7.68;;;3.45;;
21567;SDS011;10944;42.590;12.630;2022-10-31T16:24:28;51.15;;;19.98;;
21567;SDS011;10944;42.590;12.630;2022-10-31T16:27:07;57.03;;;23.13;;
21567;SDS011;10944;42.590;12.630;2022-10-31T16:29:48;13.68;;;6.45;;
21567;SDS011;10944;42.590;12.630;2022-10-31T16:35:00;13.75;;;5.43;;
21567;SDS011;10944;42.590;12.630;2022-10-31T16:37:38;17.13;;;7.50;;
21567;SDS011;10944;42.590;12.630;2022-10-31T16:40:04;36.72;;;18.75;;
21567;SDS011;10944;42.590;12.630;2022-10-31T16:42:31;10.35;;;6.10;;
21567;SDS011;10944;42.590;12.630;2022-10-31T16:44:57;8.35;;;4.28;;
21567;SDS011;10944;42.590;12.630;2022-10-31T16:47:24;37.95;;;17.63;;
21567;SDS011;10944;42.590;12.630;2022-10-31T16:49:50;25.92;;;12.73;;
21567;SDS011;10944;42.590;12.630;2022-10-31T16:52:16;43.25;;;19.65;;
21567;SDS011;10944;42.590;12.630;2022-10-31T16:54:42;31.73;;;16.30;;
21567;SDS011;10944;42.590;12.630;2022-10-31T16:57:11;36.42;;;17.13;;
21567;SDS011;10944;42.590;12.630;2022-10-31T16:59:42;23.65;;;12.43;;
21567;SDS011;10944;42.590;12.630;2022-10-31T17:02:14;12.40;;;6.63;;
21567;SDS011;10944;42.590;12.630;2022-10-31T17:04:40;12.55;;;5.30;;